Time;durP1;ratioP1;P1;durP2;ratioP2;P2;SDS_P1;SDS_P2;PMS_P1;PMS_P2;Temp;Humidity;BMP_temperature;BMP_pressure;BME280_temperature;BME280_humidity;BME280_pressure;Samples;Min_cycle;Max_cycle;Signal;HPM_P1;HPM_P2
2022/07/21 00:00:43;;;;;;;7.88;4.20;;;24.60;80.10;;;;;;10372865;28;20045;-62
2022/07/21 00:05:43;;;;;;;7.32;4.70;;;24.50;80.20;;;;;;10368438;28;20030;-61
2022/07/21 00:10:44;;;;;;;9.10;3.95;;;24.50;80.40;;;;;;10364054;28;20057;-62
2022/07/21 00:15:45;;;;;;;4.95;3.83;;;24.50;80.60;;;;;;10363255;28;20026;-62
2022/07/21 00:20:46;;;;;;;7.85;3.90;;;24.50;80.70;;;;;;10366260;28;20124;-62
2022/07/21 00:25:47;;;;;;;6.60;3.42;;;24.50;80.80;;;;;;10362428;28;20101;-62
2022/07/21 00:30:48;;;;;;;6.40;3.92;;;24.40;80.90;;;;;;10368378;28;20095;-62
2022/07/21 00:35:49;;;;;;;5.95;4.28;;;24.40;81.00;;;;;;10366736;28;20030;-62
2022/07/21 00:40:49;;;;;;;7.78;4.32;;;24.40;81.10;;;;;;10365493;28;20045;-62
2022/07/21 00:45:53;;;;;;;7.80;4.70;;;24.40;81.20;;;;;;10363801;28;20392;-62
2022/07/21 00:50:54;;;;;;;7.18;4.38;;;24.40;81.40;;;;;;10362826;28;20149;-61
2022/07/21 00:55:55;;;;;;;8.80;4.85;;;24.40;81.50;;;;;;10369907;28;20014;-62
2022/07/21 01:00:56;;;;;;;6.70;4.90;;;24.30;81.60;;;;;;10366219;28;20044;-62
2022/07/21 01:05:59;;;;;;;8.10;5.13;;;24.30;81.70;;;;;;10363793;28;20033;-62
2022/07/21 01:11:00;;;;;;;7.22;5.05;;;24.30;81.80;;;;;;10361228;28;20551;-62
2022/07/21 01:16:01;;;;;;;12.05;5.60;;;24.20;81.90;;;;;;10361529;28;20037;-62
2022/07/21 01:21:06;;;;;;;8.40;5.57;;;24.30;82.10;;;;;;10364201;28;20045;-62
2022/07/21 01:26:07;;;;;;;8.32;5.50;;;24.20;82.10;;;;;;10368722;28;20079;-62
2022/07/21 01:31:08;;;;;;;9.25;5.10;;;24.20;82.30;;;;;;10374813;28;20014;-62
2022/07/21 01:36:08;;;;;;;7.68;5.97;;;24.20;82.30;;;;;;10374901;28;20041;-62
2022/07/21 01:46:30;;;;;;;9.63;6.60;;;24.20;82.50;;;;;;10375010;28;20064;-63
2022/07/21 01:51:31;;;;;;;11.75;8.20;;;24.20;82.60;;;;;;10373277;28;20077;-62
2022/07/21 01:56:32;;;;;;;11.10;7.95;;;24.10;82.70;;;;;;10376365;28;20133;-62
2022/07/21 02:01:34;;;;;;;12.15;8.00;;;24.10;82.80;;;;;;10369120;28;20050;-62
2022/07/21 02:06:35;;;;;;;10.98;7.45;;;24.10;82.90;;;;;;10366298;28;20081;-63
2022/07/21 02:11:36;;;;;;;11.00;7.78;;;24.10;83.00;;;;;;10368809;28;20488;-62
2022/07/21 02:16:37;;;;;;;11.13;7.57;;;24.10;83.10;;;;;;10366384;28;20029;-62
2022/07/21 02:21:38;;;;;;;12.73;8.98;;;24.10;83.20;;;;;;10375687;28;20046;-62
2022/07/21 02:26:38;;;;;;;10.52;8.70;;;24.00;83.30;;;;;;10368491;28;20038;-62
2022/07/21 02:31:39;;;;;;;14.80;9.30;;;24.00;83.40;;;;;;10369254;28;20125;-62
2022/07/21 02:36:40;;;;;;;14.13;9.45;;;24.00;83.50;;;;;;10367922;28;20084;-62
2022/07/21 02:41:41;;;;;;;13.73;9.07;;;24.00;83.60;;;;;;10363790;28;20034;-62
2022/07/21 02:46:41;;;;;;;14.85;9.57;;;24.00;83.70;;;;;;10368585;28;20025;-62
2022/07/21 02:51:42;;;;;;;13.35;10.10;;;23.90;83.70;;;;;;10365480;28;20053;-62
2022/07/21 02:56:43;;;;;;;14.85;10.32;;;23.90;83.80;;;;;;10364448;28;20041;-62
2022/07/21 03:01:43;;;;;;;14.65;9.93;;;23.90;84.60;;;;;;10365236;28;20501;-62
2022/07/21 03:06:44;;;;;;;14.48;10.05;;;23.90;84.10;;;;;;10370739;28;20064;-62
2022/07/21 03:11:45;;;;;;;12.80;9.43;;;23.90;84.20;;;;;;10369813;28;20042;-62
2022/07/21 03:16:45;;;;;;;15.70;10.45;;;23.80;84.30;;;;;;10368701;28;20041;-62
2022/07/21 03:21:46;;;;;;;14.68;10.35;;;23.80;84.40;;;;;;10372910;28;20045;-62
2022/07/21 03:26:47;;;;;;;13.85;10.13;;;23.80;84.40;;;;;;10366446;28;20034;-62
2022/07/21 03:31:47;;;;;;;12.38;9.48;;;23.80;84.60;;;;;;10367573;28;20037;-62
2022/07/21 03:36:48;;;;;;;15.02;9.82;;;23.70;84.60;;;;;;10365676;28;20120;-62
2022/07/21 03:41:49;;;;;;;13.93;9.50;;;23.80;84.70;;;;;;10363756;28;20037;-62
2022/07/21 03:46:49;;;;;;;14.10;9.57;;;23.70;84.80;;;;;;10366031;28;20105;-62
2022/07/21 03:51:50;;;;;;;14.73;10.13;;;23.70;84.80;;;;;;10366893;28;20080;-62
2022/07/21 03:56:51;;;;;;;13.95;9.10;;;23.70;84.90;;;;;;10366192;28;20577;-62
2022/07/21 04:01:51;;;;;;;13.80;9.43;;;23.70;85.00;;;;;;10364630;28;20137;-62
2022/07/21 04:06:52;;;;;;;13.10;9.90;;;23.60;85.00;;;;;;10369058;28;20029;-63
2022/07/21 04:11:53;;;;;;;11.40;9.18;;;23.60;85.10;;;;;;10368995;28;20030;-63
2022/07/21 04:16:54;;;;;;;12.13;9.55;;;23.60;85.20;;;;;;10343532;28;20192;-64
2022/07/21 04:21:54;;;;;;;12.77;9.65;;;23.60;85.30;;;;;;10296312;28;20517;-64
2022/07/21 04:26:55;;;;;;;12.80;9.27;;;23.60;85.30;;;;;;10295653;28;20111;-64
2022/07/21 04:31:56;;;;;;;14.65;10.00;;;23.60;85.40;;;;;;10305182;28;20033;-63
2022/07/21 04:36:56;;;;;;;14.23;9.63;;;23.60;85.50;;;;;;10290344;28;20303;-63
2022/07/21 04:41:57;;;;;;;12.45;8.95;;;23.60;85.50;;;;;;10962696;23;20604;-63
2022/07/21 04:46:58;;;;;;;15.52;9.75;;;23.60;85.60;;;;;;10372630;28;21814;-63
2022/07/21 04:57:09;;;;;;;12.95;9.35;;;23.50;85.60;;;;;;11355613;23;20049;-64
2022/07/21 05:02:10;;;;;;;11.98;9.27;;;23.50;85.70;;;;;;10337162;28;20041;-64
2022/07/21 05:07:11;;;;;;;13.45;10.30;;;23.50;85.80;;;;;;10333739;28;20790;-65
2022/07/21 05:12:11;;;;;;;12.00;8.73;;;23.50;85.90;;;;;;10352059;28;20040;-65
2022/07/21 05:17:12;;;;;;;11.30;9.00;;;23.50;85.90;;;;;;10341049;28;20107;-65
2022/07/21 05:22:13;;;;;;;13.93;8.95;;;23.50;85.90;;;;;;10351624;28;20708;-65
2022/07/21 05:27:14;;;;;;;11.80;8.82;;;23.50;85.90;;;;;;10347563;28;20037;-64
2022/07/21 05:32:15;;;;;;;11.85;8.63;;;23.50;86.10;;;;;;10340882;28;20060;-65
2022/07/21 05:37:15;;;;;;;11.23;8.70;;;23.50;86.10;;;;;;10341794;28;20636;-64
2022/07/21 05:42:16;;;;;;;10.73;8.15;;;23.50;86.10;;;;;;10385545;23;20025;-69
2022/07/21 05:47:17;;;;;;;14.43;9.25;;;23.40;86.20;;;;;;10401379;28;20037;-66
2022/07/21 05:52:17;;;;;;;12.02;8.60;;;23.40;86.30;;;;;;10360396;28;20037;-63
2022/07/21 05:57:18;;;;;;;11.50;8.13;;;23.40;86.40;;;;;;10405354;28;20025;-64
2022/07/21 06:02:19;;;;;;;10.73;7.68;;;23.40;86.40;;;;;;10398212;28;20561;-64
2022/07/21 06:07:20;;;;;;;10.05;7.60;;;23.40;86.50;;;;;;10379652;28;20032;-64
2022/07/21 06:12:21;;;;;;;9.82;7.65;;;23.40;86.50;;;;;;10394149;28;20427;-65
2022/07/21 06:17:22;;;;;;;10.25;7.85;;;23.30;86.50;;;;;;10373743;28;20025;-64
2022/07/21 06:22:23;;;;;;;10.18;7.70;;;23.30;86.50;;;;;;10375864;28;20045;-65
2022/07/21 06:27:23;;;;;;;11.73;8.05;;;23.30;86.60;;;;;;10391406;28;20094;-65
2022/07/21 06:32:25;;;;;;;13.32;7.95;;;23.30;86.60;;;;;;10400310;28;20568;-65
2022/07/21 06:37:25;;;;;;;11.52;7.68;;;23.30;86.60;;;;;;10393197;28;20524;-65
2022/07/21 06:42:26;;;;;;;11.13;8.07;;;23.30;86.60;;;;;;10393536;28;20145;-65
2022/07/21 06:47:27;;;;;;;11.57;7.85;;;23.30;86.70;;;;;;10436905;28;20039;-64
2022/07/21 06:52:29;;;;;;;12.38;8.38;;;23.30;87.30;;;;;;10424523;28;20044;-65
2022/07/21 06:57:29;;;;;;;11.20;8.18;;;23.30;86.80;;;;;;10438175;28;20040;-65
2022/07/21 07:02:30;;;;;;;11.13;8.23;;;23.30;87.00;;;;;;10424750;28;20458;-66
2022/07/21 07:07:31;;;;;;;10.10;7.63;;;23.30;86.80;;;;;;10442128;28;20066;-65
2022/07/21 07:12:32;;;;;;;15.27;8.40;;;23.30;86.80;;;;;;10440991;28;20032;-63
2022/07/21 07:17:32;;;;;;;12.07;7.95;;;23.30;86.90;;;;;;10428221;28;20669;-64
2022/07/21 07:22:33;;;;;;;12.20;8.05;;;23.30;86.80;;;;;;10441831;28;20107;-64
2022/07/21 07:27:34;;;;;;;15.05;9.25;;;23.40;86.90;;;;;;10423704;28;20252;-64
2022/07/21 07:37:46;;;;;;;10.80;8.20;;;23.30;87.10;;;;;;10596210;22;20086;-64
2022/07/21 07:42:47;;;;;;;14.55;8.73;;;23.30;87.10;;;;;;10497869;27;20050;-63
2022/07/21 07:47:48;;;;;;;15.30;8.25;;;23.30;87.10;;;;;;10508754;27;20027;-62
2022/07/21 07:52:50;;;;;;;13.23;9.05;;;23.30;87.20;;;;;;10509606;27;20043;-64
2022/07/21 07:57:51;;;;;;;15.77;9.50;;;23.30;87.20;;;;;;10506652;27;20455;-63
2022/07/21 08:08:03;;;;;;;10.60;8.48;;;23.40;87.00;;;;;;10884244;22;20474;-63
2022/07/21 08:13:03;;;;;;;12.40;8.90;;;23.40;87.00;;;;;;10505168;27;20104;-61
2022/07/21 08:18:06;;;;;;;15.80;9.77;;;23.40;86.90;;;;;;10505151;27;20663;-63
2022/07/21 08:23:07;;;;;;;15.70;9.70;;;23.40;86.90;;;;;;10481813;28;20057;-62
2022/07/21 08:28:08;;;;;;;13.65;9.98;;;23.40;86.90;;;;;;10501281;28;20027;-63
2022/07/21 08:33:09;;;;;;;13.02;9.65;;;23.50;86.80;;;;;;10498138;27;20483;-62
2022/07/21 08:38:11;;;;;;;13.95;8.80;;;23.50;86.70;;;;;;10510066;27;20119;-63
2022/07/21 08:43:14;;;;;;;14.85;9.35;;;23.60;86.50;;;;;;10509601;27;20039;-62
2022/07/21 08:48:19;;;;;;;13.82;9.55;;;23.60;86.30;;;;;;10513482;27;20035;-63
2022/07/21 08:53:19;;;;;;;15.35;10.70;;;23.70;86.20;;;;;;10508694;27;20088;-62
2022/07/21 08:58:21;;;;;;;16.88;10.68;;;23.70;86.10;;;;;;10515378;27;20960;-62
2022/07/21 09:03:23;;;;;;;17.25;10.35;;;23.70;86.00;;;;;;10503102;27;20484;-63
2022/07/21 09:08:32;;;;;;;12.18;9.32;;;23.80;86.00;;;;;;10499022;27;20547;-63
2022/07/21 09:13:32;;;;;;;11.07;8.98;;;23.90;85.90;;;;;;10518895;27;20712;-62
2022/07/21 09:18:33;;;;;;;15.38;9.88;;;23.90;85.60;;;;;;10498662;27;20034;-63
2022/07/21 09:23:34;;;;;;;14.57;9.35;;;23.90;85.70;;;;;;10516977;27;20111;-64
2022/07/21 09:28:35;;;;;;;14.57;9.85;;;23.90;85.60;;;;;;10507712;27;20598;-63
2022/07/21 09:33:44;;;;;;;14.68;9.38;;;23.90;85.60;;;;;;11022329;22;20063;-64
2022/07/21 09:38:54;;;;;;;13.02;9.65;;;23.90;85.60;;;;;;10500054;27;20058;-63
2022/07/21 09:43:57;;;;;;;21.02;11.88;;;23.90;85.50;;;;;;10502064;27;20396;-65
2022/07/21 09:49:01;;;;;;;25.52;14.63;;;23.90;86.00;;;;;;10513582;27;20031;-67
2022/07/21 09:54:10;;;;;;;29.50;16.27;;;23.90;86.50;;;;;;10517000;27;20110;-74
2022/07/21 09:59:12;;;;;;;36.10;19.08;;;23.80;87.90;;;;;;10507650;27;20074;-64
2022/07/21 10:04:13;;;;;;;31.00;18.40;;;23.70;88.20;;;;;;10496617;27;20510;-65
2022/07/21 10:09:14;;;;;;;36.70;21.05;;;23.60;88.90;;;;;;10497029;27;20067;-63
2022/07/21 10:14:15;;;;;;;38.10;21.55;;;23.60;89.70;;;;;;10492178;27;20378;-64
2022/07/21 10:25:34;;;;;;;36.42;20.13;;;23.50;90.70;;;;;;10378101;28;20044;-66
2022/07/21 10:30:43;;;;;;;32.60;18.30;;;23.30;90.60;;;;;;10491499;27;20040;-69
2022/07/21 10:35:50;;;;;;;35.30;19.73;;;23.30;90.90;;;;;;10518890;27;20056;-66
2022/07/21 10:46:01;;;;;;;30.20;16.27;;;23.20;90.90;;;;;;11893975;22;20111;-66
2022/07/21 10:51:14;;;;;;;28.45;15.60;;;23.10;91.00;;;;;;10560634;27;20055;-68
2022/07/21 11:12:00;;;;;;;21.83;14.02;;;23.10;91.40;;;;;;10756605;22;20063;-66
2022/07/21 11:17:02;;;;;;;27.80;15.23;;;23.00;91.90;;;;;;10508532;27;20924;-71
2022/07/21 11:22:06;;;;;;;28.27;14.68;;;22.90;91.90;;;;;;10514596;27;20124;-68
2022/07/21 11:27:10;;;;;;;24.98;15.50;;;22.90;92.20;;;;;;10505509;27;20110;-67
2022/07/21 11:32:12;;;;;;;31.15;18.67;;;22.70;92.70;;;;;;10521541;27;20572;-67
2022/07/21 11:37:16;;;;;;;28.20;16.10;;;22.50;93.10;;;;;;10515642;27;20032;-69
2022/07/21 11:42:16;;;;;;;25.55;14.98;;;22.50;93.70;;;;;;10515728;27;20040;-63
2022/07/21 11:47:20;;;;;;;23.42;13.45;;;22.40;94.00;;;;;;10511885;27;20313;-64
2022/07/21 11:52:26;;;;;;;18.75;11.80;;;22.40;93.90;;;;;;10506842;27;20058;-66
2022/07/21 11:57:28;;;;;;;19.45;12.95;;;22.50;93.90;;;;;;10522176;27;20189;-65
2022/07/21 12:02:30;;;;;;;18.05;11.40;;;22.60;93.70;;;;;;10518301;27;20117;-63
2022/07/21 12:07:44;;;;;;;17.58;10.68;;;22.70;93.60;;;;;;10517972;27;20366;-63
2022/07/21 12:12:48;;;;;;;14.77;9.45;;;22.80;93.40;;;;;;10518112;27;20331;-64
2022/07/21 12:17:52;;;;;;;14.38;9.27;;;22.80;93.30;;;;;;10514651;27;20042;-64
2022/07/21 12:22:55;;;;;;;13.75;8.32;;;22.90;93.20;;;;;;10516421;27;20038;-63
2022/07/21 12:27:56;;;;;;;12.73;8.90;;;22.90;93.20;;;;;;10512943;27;20134;-65
2022/07/21 12:33:12;;;;;;;11.98;8.38;;;22.90;93.10;;;;;;10510509;28;20035;-65
2022/07/21 12:38:14;;;;;;;10.20;7.55;;;22.90;93.20;;;;;;10507723;28;20027;-68
2022/07/21 12:43:18;;;;;;;9.30;7.38;;;22.90;93.10;;;;;;10506148;28;20039;-65
2022/07/21 12:48:31;;;;;;;9.90;7.25;;;23.00;93.10;;;;;;10489813;28;20235;-65
2022/07/21 12:53:37;;;;;;;10.50;6.30;;;23.00;93.00;;;;;;10509736;28;20027;-63
2022/07/21 12:58:38;;;;;;;7.32;5.82;;;23.00;93.00;;;;;;10514021;28;20756;-65
2022/07/21 13:03:39;;;;;;;8.82;5.65;;;23.00;92.90;;;;;;10510491;28;20042;-66
2022/07/21 13:08:41;;;;;;;6.90;5.70;;;23.10;92.90;;;;;;10490627;28;20485;-66
2022/07/21 13:13:42;;;;;;;6.60;5.28;;;23.10;92.90;;;;;;10507717;28;20051;-65
2022/07/21 13:18:43;;;;;;;6.82;5.00;;;23.10;92.80;;;;;;10510982;27;20031;-66
2022/07/21 13:23:44;;;;;;;6.25;5.28;;;23.10;92.80;;;;;;10516659;27;20432;-65
2022/07/21 13:28:44;;;;;;;8.25;5.32;;;23.10;92.80;;;;;;10509639;27;20035;-66
2022/07/21 13:33:46;;;;;;;5.85;4.57;;;23.10;92.80;;;;;;10524607;27;20391;-65
2022/07/21 13:38:47;;;;;;;6.07;4.40;;;23.10;92.70;;;;;;10520234;27;20042;-65
2022/07/21 13:43:48;;;;;;;5.93;4.45;;;23.10;92.60;;;;;;10520987;27;20793;-65
2022/07/21 13:48:48;;;;;;;4.75;4.28;;;23.10;92.70;;;;;;10508964;27;20483;-67
2022/07/21 13:53:51;;;;;;;6.93;4.53;;;23.10;92.80;;;;;;10522644;27;20397;-66
2022/07/21 13:58:51;;;;;;;8.07;4.13;;;23.10;92.80;;;;;;10520514;27;20031;-65
2022/07/21 14:03:52;;;;;;;5.00;4.10;;;23.10;92.90;;;;;;10516801;27;20040;-69
2022/07/21 14:08:53;;;;;;;5.07;3.75;;;23.10;92.80;;;;;;10520756;27;20051;-67
2022/07/21 14:13:55;;;;;;;5.38;3.78;;;23.10;92.80;;;;;;10516859;27;20162;-68
2022/07/21 14:18:56;;;;;;;4.07;3.50;;;23.20;92.70;;;;;;10515709;27;20482;-67
2022/07/21 14:29:17;;;;;;;3.85;3.33;;;23.20;92.50;;;;;;10518107;27;20033;-69
2022/07/21 14:34:18;;;;;;;5.35;3.47;;;23.20;92.50;;;;;;10521978;27;20088;-70
2022/07/21 14:39:19;;;;;;;4.57;3.33;;;23.20;92.50;;;;;;10519357;27;20052;-70
2022/07/21 14:44:19;;;;;;;4.50;3.58;;;23.10;92.50;;;;;;10497801;27;20107;-71
2022/07/21 14:49:20;;;;;;;6.05;3.67;;;23.10;92.50;;;;;;10511479;27;20031;-70
2022/07/21 14:54:21;;;;;;;4.03;3.45;;;23.10;92.60;;;;;;10510716;27;20028;-70
2022/07/21 14:59:21;;;;;;;3.22;2.85;;;23.10;92.60;;;;;;10524211;27;20089;-71
2022/07/21 15:04:22;;;;;;;5.25;3.53;;;23.10;92.60;;;;;;10516602;27;20039;-66
2022/07/21 15:09:23;;;;;;;4.65;3.38;;;23.00;92.70;;;;;;10510367;27;20048;-63
2022/07/21 15:14:24;;;;;;;4.82;4.15;;;23.00;92.90;;;;;;10513166;27;20030;-63
2022/07/21 15:19:25;;;;;;;4.25;3.60;;;23.00;92.90;;;;;;10509372;27;20155;-59
2022/07/21 15:24:25;;;;;;;4.28;3.58;;;23.00;92.90;;;;;;10511957;27;20704;-62
2022/07/21 15:29:26;;;;;;;4.45;3.33;;;23.00;92.80;;;;;;10490845;27;20027;-62
2022/07/21 15:34:27;;;;;;;4.93;3.55;;;23.00;92.80;;;;;;10510082;27;20122;-62
2022/07/21 15:39:27;;;;;;;5.40;3.90;;;23.00;92.80;;;;;;10510057;27;20561;-62
2022/07/21 15:44:28;;;;;;;4.40;3.28;;;23.00;92.90;;;;;;10501885;27;20039;-62
2022/07/21 15:49:29;;;;;;;3.30;3.00;;;23.00;93.20;;;;;;10481120;27;20505;-62
2022/07/21 15:54:30;;;;;;;4.97;3.28;;;23.00;93.40;;;;;;10516520;27;20213;-62
2022/07/21 15:59:33;;;;;;;3.40;2.97;;;23.00;93.60;;;;;;10508988;27;20422;-63
2022/07/21 16:04:35;;;;;;;3.78;3.20;;;22.90;93.70;;;;;;10493257;27;20108;-63
2022/07/21 16:14:39;;;;;;;4.47;3.00;;;22.90;94.00;;;;;;10432749;28;20135;-63
2022/07/21 16:19:40;;;;;;;3.42;3.13;;;22.80;94.20;;;;;;10432719;28;20034;-63
2022/07/21 16:24:40;;;;;;;3.67;3.30;;;22.80;94.60;;;;;;10428258;28;20482;-63
2022/07/21 16:29:41;;;;;;;3.97;3.00;;;22.80;94.40;;;;;;10430876;28;20048;-63
2022/07/21 16:34:42;;;;;;;4.55;3.20;;;22.80;94.50;;;;;;10432507;28;20043;-63
2022/07/21 16:39:43;;;;;;;4.80;2.83;;;22.80;94.60;;;;;;10436676;28;20284;-63
2022/07/21 16:44:44;;;;;;;4.32;3.40;;;22.70;94.70;;;;;;10434927;28;20692;-63
2022/07/21 16:49:44;;;;;;;4.43;3.40;;;22.70;94.90;;;;;;10442050;28;20637;-64
2022/07/21 16:54:45;;;;;;;5.10;3.83;;;22.70;95.10;;;;;;10443867;28;20040;-63
2022/07/21 16:59:46;;;;;;;4.00;3.40;;;22.60;95.40;;;;;;10448532;28;20649;-63
2022/07/21 17:04:47;;;;;;;5.03;3.60;;;22.50;95.50;;;;;;10443428;28;20039;-64
2022/07/21 17:09:48;;;;;;;3.55;3.20;;;22.50;95.50;;;;;;10435909;28;20028;-65
2022/07/21 17:14:49;;;;;;;4.55;3.28;;;22.50;95.50;;;;;;10444653;28;20035;-66
2022/07/21 17:19:50;;;;;;;3.65;3.00;;;22.50;95.40;;;;;;10439035;28;20046;-66
2022/07/21 17:24:51;;;;;;;5.70;3.47;;;22.40;95.40;;;;;;10441957;28;20356;-63
2022/07/21 17:29:52;;;;;;;4.65;2.72;;;22.40;95.40;;;;;;10440772;28;20605;-64
2022/07/21 17:34:53;;;;;;;3.67;2.58;;;22.30;95.50;;;;;;10443911;28;20114;-63
2022/07/21 17:39:54;;;;;;;4.82;2.90;;;22.20;95.50;;;;;;10437977;28;20184;-64
2022/07/21 17:44:55;;;;;;;5.38;2.45;;;22.10;95.50;;;;;;10442068;28;20157;-62
2022/07/21 17:49:56;;;;;;;5.07;1.95;;;22.00;95.70;;;;;;10442685;28;20032;-67
2022/07/21 17:54:57;;;;;;;5.38;2.35;;;21.90;95.70;;;;;;10443332;28;20146;-65
2022/07/21 17:59:57;;;;;;;5.32;2.20;;;21.80;95.80;;;;;;10443130;28;20060;-65
2022/07/21 18:04:59;;;;;;;3.97;2.22;;;21.70;95.90;;;;;;10442350;28;20050;-64
2022/07/21 18:10:00;;;;;;;3.60;1.48;;;21.80;95.80;;;;;;10439447;28;20048;-64
2022/07/21 18:15:01;;;;;;;1.90;1.27;;;21.80;95.60;;;;;;10438770;28;20087;-64
2022/07/21 18:20:03;;;;;;;4.25;1.50;;;21.90;95.50;;;;;;10440495;28;20028;-64
2022/07/21 18:25:04;;;;;;;2.10;1.10;;;21.90;95.40;;;;;;10452914;28;20039;-68
2022/07/21 18:30:06;;;;;;;1.63;1.20;;;21.80;95.30;;;;;;11426954;22;20138;-66
2022/07/21 18:35:07;;;;;;;3.08;1.13;;;21.90;95.30;;;;;;10515847;27;20066;-67
2022/07/21 18:50:29;;;;;;;1.23;0.75;;;21.90;95.00;;;;;;12126041;22;20051;-66
2022/07/21 18:55:29;;;;;;;1.05;0.75;;;21.90;95.00;;;;;;10510708;27;20337;-67
2022/07/21 19:00:30;;;;;;;1.42;0.75;;;21.90;94.90;;;;;;10513140;27;20142;-69
2022/07/21 19:05:31;;;;;;;1.30;0.80;;;21.80;94.80;;;;;;10515359;27;20406;-64
2022/07/21 19:10:32;;;;;;;0.88;0.57;;;21.80;94.80;;;;;;10505424;27;20074;-66
2022/07/21 19:15:32;;;;;;;1.80;0.52;;;21.80;94.80;;;;;;10512875;27;20035;-66
2022/07/21 19:20:33;;;;;;;1.70;0.57;;;21.70;94.70;;;;;;11211589;22;20008;-66
2022/07/21 19:25:34;;;;;;;0.80;0.40;;;21.60;94.80;;;;;;10466096;28;20472;-64
2022/07/21 19:30:35;;;;;;;0.95;0.50;;;21.60;94.80;;;;;;10463726;28;20541;-64
2022/07/21 19:35:36;;;;;;;1.23;0.40;;;21.50;94.70;;;;;;10461026;28;20382;-63
2022/07/21 19:40:36;;;;;;;1.85;0.57;;;21.60;94.60;;;;;;10455602;28;20123;-63
2022/07/21 19:45:37;;;;;;;1.98;0.50;;;21.60;94.60;;;;;;10451814;28;20818;-63
2022/07/21 19:50:38;;;;;;;0.32;0.32;;;21.60;94.80;;;;;;10462252;28;20132;-63
2022/07/21 19:55:39;;;;;;;0.60;0.45;;;21.60;94.40;;;;;;10429757;28;20352;-63
2022/07/21 20:00:40;;;;;;;0.50;0.50;;;21.60;94.40;;;;;;10453435;28;20024;-61
2022/07/21 20:05:40;;;;;;;2.60;0.50;;;21.50;94.40;;;;;;10454396;28;20496;-65
2022/07/21 20:10:44;;;;;;;1.13;0.50;;;21.50;94.40;;;;;;10450046;28;20434;-66
2022/07/21 20:15:45;;;;;;;0.40;0.30;;;21.50;94.40;;;;;;10441912;28;20045;-64
2022/07/21 20:20:46;;;;;;;0.75;0.47;;;21.50;94.30;;;;;;10533803;28;20039;-64
2022/07/21 20:25:47;;;;;;;1.15;0.50;;;21.50;94.30;;;;;;10500272;28;20060;-64
2022/07/21 20:30:47;;;;;;;1.08;0.40;;;21.50;94.20;;;;;;10502512;28;20107;-65
2022/07/21 20:35:48;;;;;;;2.35;0.45;;;21.50;94.20;;;;;;10500974;28;20452;-65
2022/07/21 20:40:49;;;;;;;2.47;0.60;;;21.50;94.10;;;;;;10499860;28;20059;-64
2022/07/21 20:45:50;;;;;;;1.52;0.60;;;21.50;94.10;;;;;;10501430;28;20517;-64
2022/07/21 20:50:51;;;;;;;0.50;0.50;;;21.50;94.00;;;;;;10494224;28;20107;-64
2022/07/21 20:55:52;;;;;;;1.55;0.55;;;21.50;94.00;;;;;;10503637;28;20039;-64
2022/07/21 21:00:53;;;;;;;1.30;0.55;;;21.50;93.90;;;;;;10493724;28;20082;-64
2022/07/21 21:05:53;;;;;;;1.88;0.50;;;21.50;93.90;;;;;;10498011;28;20060;-65
2022/07/21 21:10:54;;;;;;;2.30;0.50;;;21.50;93.90;;;;;;10494970;28;20028;-65
2022/07/21 21:15:55;;;;;;;2.42;0.57;;;21.50;93.90;;;;;;10500796;28;20032;-65
2022/07/21 21:20:56;;;;;;;1.25;0.75;;;21.50;93.80;;;;;;10507857;28;20496;-64
2022/07/21 21:25:56;;;;;;;0.85;0.40;;;21.40;93.80;;;;;;10544764;28;20043;-65
2022/07/21 21:30:57;;;;;;;0.63;0.50;;;21.40;93.70;;;;;;10541987;28;20487;-64
2022/07/21 21:35:58;;;;;;;0.82;0.40;;;21.40;93.70;;;;;;10546920;28;20023;-65
2022/07/21 21:40:58;;;;;;;1.00;0.43;;;21.40;93.70;;;;;;10544841;28;20034;-65
2022/07/21 21:46:00;;;;;;;1.88;0.73;;;21.40;93.70;;;;;;10533437;28;20039;-65
2022/07/21 21:51:00;;;;;;;1.65;0.50;;;21.40;93.70;;;;;;10548686;28;20023;-65
2022/07/21 21:56:01;;;;;;;0.52;0.50;;;21.30;93.60;;;;;;10552302;28;20028;-65
2022/07/21 22:01:02;;;;;;;1.42;0.50;;;21.30;93.60;;;;;;10536412;28;20121;-65
2022/07/21 22:06:03;;;;;;;2.03;0.70;;;21.30;93.60;;;;;;10543043;28;20461;-65
2022/07/21 22:11:04;;;;;;;2.58;0.80;;;21.30;93.60;;;;;;10547079;28;20127;-65
2022/07/21 22:16:06;;;;;;;2.72;0.57;;;21.30;93.50;;;;;;10549931;28;20020;-65
2022/07/21 22:21:07;;;;;;;0.70;0.60;;;21.30;93.50;;;;;;10550271;28;20100;-65
2022/07/21 22:26:10;;;;;;;1.88;0.60;;;21.30;93.50;;;;;;10561434;28;20031;-65
2022/07/21 22:31:11;;;;;;;1.98;0.60;;;21.20;93.50;;;;;;10530423;28;20418;-65
2022/07/21 22:36:11;;;;;;;1.38;0.70;;;21.20;93.40;;;;;;10668609;22;20053;-65
2022/07/21 22:41:12;;;;;;;2.97;0.80;;;21.20;93.40;;;;;;10587466;27;20106;-65
2022/07/21 22:46:13;;;;;;;2.70;0.70;;;21.20;93.40;;;;;;10582760;27;20090;-65
2022/07/21 22:51:14;;;;;;;0.98;0.70;;;21.20;93.40;;;;;;10590522;27;20508;-65
2022/07/21 22:56:15;;;;;;;1.50;0.80;;;21.20;93.30;;;;;;10591630;27;20056;-65
2022/07/21 23:01:15;;;;;;;1.48;0.70;;;21.10;93.30;;;;;;10587924;27;20490;-65
2022/07/21 23:06:16;;;;;;;1.95;1.00;;;21.10;93.30;;;;;;10582818;27;20036;-65
2022/07/21 23:11:17;;;;;;;2.42;0.80;;;21.10;93.30;;;;;;10591166;27;20023;-65
2022/07/21 23:16:18;;;;;;;2.28;0.60;;;21.10;93.30;;;;;;10586146;27;20139;-65
2022/07/21 23:21:18;;;;;;;2.90;1.08;;;21.10;93.20;;;;;;10591079;27;20027;-65
2022/07/21 23:26:19;;;;;;;2.47;0.98;;;21.10;93.20;;;;;;10585054;27;20039;-65
2022/07/21 23:31:20;;;;;;;3.78;1.00;;;21.10;93.20;;;;;;10579535;27;20137;-65
2022/07/21 23:36:21;;;;;;;1.40;0.80;;;21.10;93.20;;;;;;10582632;27;20040;-65
2022/07/21 23:41:21;;;;;;;2.08;0.50;;;21.00;93.10;;;;;;10583259;27;20038;-65
2022/07/21 23:46:22;;;;;;;1.13;0.80;;;21.00;93.10;;;;;;10596808;27;20027;-65
2022/07/21 23:51:23;;;;;;;1.30;0.77;;;21.00;93.10;;;;;;10591997;27;20023;-65
2022/07/21 23:56:23;;;;;;;2.78;0.85;;;21.00;93.10;;;;;;10600631;27;20029;-65
